Aviation Digital Data Service (ADDS)

Output produced by METARs form (0719 UTC 28 September 2022)
found at http://www.aviationweather.gov/metar/data/
 
KSIF 280715Z AUTO 00000KT 10SM CLR 06/06 A3016 RMK AO2 T00560056